Latest Weather Observations for Pallamana

IDS60801

Issued at 7:01 pm CST Tuesday 24 May 2016 (issued every 30 minutes, with the page automatically refreshed every 10 minutes)

About weather observations | Map of weather stations | Latest weather observations for SA | Other Formats
Station Details ID: 024584 Name: PALLAMANA AERODROME Lat: -35.06 Lon: 139.23 Height: 45.0 m
Data from the previous 72 hours. | See also: Recent months at Pallamana
Date/Time
CST
Temp
°C
App
Temp
°C
Dew
Point
Rel
Hum
%
Delta-T
°C
Wind Press
QNH
hPa
Press
MSL
hPa
Rain
since 9 am
mm
Dir
 
Spd
km/h
Gust
km/h
Spd
kts
Gust
kts
24/07:00pm 12.8 8.4 2.5 49 4.5 NNW 15 17 8 9 1017.5 1017.5 0.0
24/06:30pm 11.2 7.4 1.8 52 4.0 N 11 11 6 6 1017.3 1017.3 0.0
24/06:00pm 14.5 10.9 2.9 45 5.2 NNW 11 13 6 7 1017.6 1017.6 0.0
24/05:30pm 15.3 11.3 2.9 43 5.6 NNE 13 17 7 9 1017.4 1017.4 0.0
24/05:00pm 17.9 13.9 2.6 36 7.0 N 13 17 7 9 1017.3 1017.3 0.0
24/04:30pm 20.1 14.8 3.1 32 8.0 NNW 20 28 11 15 1017.5 1017.5 0.0
24/04:00pm 20.8 15.5 3.0 31 8.4 NNW 20 28 11 15 1017.6 1017.6 0.0
24/03:30pm 21.4 16.5 4.0 32 8.4 N 19 28 10 15 1017.8 1017.8 0.0
24/03:00pm 21.2 15.9 3.0 30 8.6 NNW 20 32 11 17 1018.1 1018.1 0.0
24/02:30pm 21.4 16.1 2.1 28 9.0 NNW 19 26 10 14 1018.3 1018.3 0.0
24/02:00pm 21.6 16.6 3.4 30 8.7 NNW 19 28 10 15 1018.6 1018.6 0.0
24/01:30pm 21.4 16.8 3.7 31 8.5 N 17 28 9 15 1018.9 1018.9 0.0
24/01:00pm 20.2 16.3 7.0 42 6.7 NNE 17 24 9 13 1019.5 1019.5 0.0
24/12:30pm 19.9 16.0 7.3 44 6.4 NNE 17 28 9 15 1020.3 1020.3 0.0
24/12:00pm 19.0 15.1 7.1 46 6.0 N 17 24 9 13 1021.0 1021.0 0.0
24/11:30am 18.9 14.8 8.0 49 5.6 NNE 19 24 10 13 1021.8 1021.8 0.0
24/11:00am 17.8 13.8 8.2 53 4.9 NNE 19 24 10 13 1022.8 1022.8 0.0
24/10:30am 16.3 13.6 8.9 61 3.8 NNE 13 19 7 10 1023.4 1023.4 0.0
24/10:00am 14.2 12.4 9.5 73 2.4 NNE 9 13 5 7 1023.8 1023.8 0.0
24/09:30am 11.4 9.9 8.6 83 1.4 NNE 6 9 3 5 1024.0 1024.0 0.0
24/09:00am 9.3 7.6 8.3 93 0.5 N 7 9 4 5 1024.1 1024.1 0.0
24/08:30am 7.8 6.0 7.2 96 0.3 NNW 6 9 3 5 1023.9 1023.9 0.0
24/08:00am 7.4 5.4 7.0 97 0.2 NW 7 11 4 6 1023.8 1023.8 0.0
24/07:30am 4.7 2.1 4.0 95 0.3 NNW 7 11 4 6 1023.6 1023.6 0.0
24/07:00am 4.0 2.2 3.5 97 0.2 N 2 7 1 4 1023.2 1023.2 0.0
24/06:30am 6.2 3.9 5.5 95 0.3 NNW 7 11 4 6 1022.7 1022.7 0.0
24/06:00am 6.2 3.1 5.5 95 0.3 NNW 11 13 6 7 1022.5 1022.5 0.0
24/05:30am 5.5 3.0 4.8 95 0.3 NNW 7 9 4 5 1022.3 1022.3 0.0
24/05:00am 7.6 5.1 6.7 94 0.4 NNW 9 13 5 7 1022.5 1022.5 0.0
24/04:30am 7.5 5.1 7.1 97 0.2 NNW 9 13 5 7 1022.2 1022.2 0.0
24/04:00am 8.3 5.3 7.7 96 0.3 NNW 13 13 7 7 1022.2 1022.2 0.0
24/03:30am 7.4 4.6 7.0 97 0.2 NNW 11 13 6 7 1022.4 1022.4 0.0
24/03:00am 6.1 3.8 5.6 97 0.2 NNW 7 9 4 5 1022.5 1022.5 0.0
24/02:30am 7.0 6.1 5.9 93 0.5 CALM 0 0 0 0 1022.7 1022.7 0.0
24/02:00am 6.3 5.4 6.1 99 0.1 CALM 0 0 0 0 1023.0 1023.0 0.0
24/01:30am 4.8 2.3 3.8 93 0.4 S 6 9 3 5 1023.0 1023.0 0.0
24/01:00am 6.4 5.3 5.3 93 0.5 CALM 0 0 0 0 1023.4 1023.4 0.0
24/12:30am 8.5 7.9 7.2 91 0.6 CALM 0 0 0 0 1023.3 1023.3 0.0
24/12:00am 7.5 6.6 6.2 91 0.6 CALM 0 4 0 2 1023.3 1023.3 0.0
 
Date/Time
CST
Temp
°C
App
Temp
°C
Dew
Point
Rel
Hum
%
Delta-T
°C
Wind Press
QNH
hPa
Press
MSL
hPa
Rain
since 9 am
mm
Dir
 
Spd
km/h
Gust
km/h
Spd
kts
Gust
kts
23/11:30pm 9.2 8.4 8.2 93 0.5 ESE 2 7 1 4 1023.4 1023.4 0.0
23/11:00pm 9.8 7.7 8.4 91 0.7 NNE 9 11 5 6 1023.5 1023.5 0.0
23/10:30pm 12.2 10.0 9.4 83 1.4 WNW 11 15 6 8 1023.5 1023.5 0.0
23/10:00pm 12.2 9.2 9.2 82 1.5 WNW 15 19 8 10 1023.8 1023.8 0.0
23/09:30pm 12.2 9.2 9.2 82 1.5 WNW 15 19 8 10 1024.0 1024.0 0.0
23/09:00pm 12.5 9.5 9.1 80 1.7 W 15 17 8 9 1024.1 1024.1 0.0
23/08:30pm 12.4 9.3 9.0 80 1.7 W 15 19 8 10 1024.1 1024.1 0.0
23/08:00pm 12.3 9.9 8.5 77 1.9 W 11 11 6 6 1024.1 1024.1 0.0
23/07:30pm 10.3 8.3 6.2 76 1.9 WNW 6 7 3 4 1024.0 1024.0 0.0
23/07:00pm 13.4 10.4 7.9 69 2.7 W 13 15 7 8 1023.5 1023.5 0.0
23/06:30pm 14.0 11.4 7.7 66 3.1 W 11 13 6 7 1023.3 1023.3 0.0
23/06:00pm 14.8 11.8 7.5 61 3.6 W 13 15 7 8 1023.0 1023.0 0.0
23/05:30pm 15.8 13.0 7.1 56 4.3 W 11 13 6 7 1022.7 1022.7 0.0
23/05:00pm 17.1 13.9 6.8 50 5.1 W 13 20 7 11 1022.5 1022.5 0.0
23/04:30pm 18.2 14.6 6.7 47 5.7 WNW 15 22 8 12 1022.4 1022.4 0.0
23/04:00pm 18.6 14.1 6.3 44 6.1 WNW 19 30 10 16 1022.2 1022.2 0.0
23/03:30pm 18.7 13.5 5.6 42 6.4 W 22 32 12 17 1022.0 1022.0 0.0
23/03:00pm 19.3 14.8 6.2 42 6.5 W 19 26 10 14 1022.2 1022.2 0.0
23/02:30pm 19.5 14.7 5.7 40 6.8 W 20 30 11 16 1022.0 1022.0 0.0
23/02:00pm 19.3 14.0 6.7 44 6.3 W 24 35 13 19 1022.0 1022.0 0.0
23/01:30pm 19.4 13.1 5.5 40 6.8 W 28 41 15 22 1021.9 1021.9 0.0
23/01:00pm 19.6 13.5 5.0 38 7.1 W 26 37 14 20 1022.0 1022.0 0.0
23/12:30pm 19.0 12.3 5.8 42 6.5 W 30 41 16 22 1022.1 1022.1 0.0
23/12:00pm 18.5 11.8 5.8 43 6.2 W 30 39 16 21 1022.3 1022.3 0.0
23/11:30am 18.9 13.1 6.1 43 6.3 W 26 44 14 24 1022.7 1022.7 0.0
23/11:00am 18.0 11.4 6.2 46 5.8 WNW 30 37 16 20 1022.9 1022.9 0.0
23/10:30am 17.8 12.9 6.7 48 5.5 W 22 32 12 17 1023.1 1023.1 0.0
23/10:00am 16.9 11.8 6.0 48 5.3 W 22 33 12 18 1023.0 1023.0 0.0
23/09:30am 15.9 13.0 6.7 54 4.5 NW 11 17 6 9 1023.0 1023.0 0.0
23/09:00am 15.0 12.1 6.3 56 4.2 NNW 11 17 6 9 1023.2 1023.2 0.0
23/08:30am 12.9 10.4 6.6 65 3.0 NNW 9 11 5 6 1023.1 1023.1 0.0
23/08:00am 10.5 7.6 6.4 76 1.9 NW 11 13 6 7 1022.8 1022.8 0.0
23/07:30am 9.5 6.4 5.5 76 1.8 NW 11 13 6 7 1022.5 1022.5 0.0
23/07:00am 10.7 8.5 6.2 74 2.1 NW 7 9 4 5 1022.0 1022.0 0.0
23/06:30am 10.7 8.1 6.2 74 2.1 NW 9 9 5 5 1021.5 1021.5 0.0
23/06:00am 10.2 7.9 5.9 74 2.0 NW 7 9 4 5 1021.4 1021.4 0.0
23/05:30am 9.2 7.0 5.4 77 1.7 N 6 9 3 5 1021.1 1021.1 0.0
23/05:00am 9.0 5.8 5.0 76 1.8 ENE 11 13 6 7 1020.7 1020.7 0.0
23/04:30am 12.2 9.6 6.0 66 2.9 W 9 15 5 8 1020.0 1020.0 0.0
23/04:00am 12.6 8.4 5.5 62 3.3 W 17 22 9 12 1019.3 1019.3 0.0
23/03:30am 12.4 8.6 6.0 65 3.0 WSW 15 22 8 12 1019.2 1019.2 0.0
23/03:00am 13.5 6.8 5.4 58 3.8 W 30 44 16 24 1018.7 1018.7 0.0
23/02:30am 13.7 7.4 5.6 58 3.8 W 28 43 15 23 1017.9 1017.9 0.0
23/02:00am 13.9 7.3 6.2 59 3.7 W 30 43 16 23 1017.6 1017.6 0.0
23/01:51am 13.7 7.2 6.6 62 3.4 W 30 48 16 26 1017.5 1017.5 0.0
23/01:30am 13.3 6.5 6.9 65 3.1 W 32 46 17 25 1017.2 1017.2 0.0
23/01:25am 13.2 6.2 6.8 65 3.1 WNW 33 52 18 28 1017.2 1017.2 0.0
23/01:00am 13.0 5.4 6.0 62 3.3 WNW 35 52 19 28 1016.8 1016.8 0.0
23/12:38am 12.9 4.4 5.1 59 3.6 WNW 39 59 21 32 1016.3 1016.3 0.0
23/12:30am 13.1 4.2 4.9 57 3.8 WNW 41 56 22 30 1016.3 1016.3 0.0
23/12:03am 14.6 6.1 7.0 60 3.7 WNW 41 72 22 39 1016.2 1016.2 0.0
23/12:02am 14.9 6.7 6.4 57 4.1 WNW 39 72 21 39 1016.1 1016.1 0.0
23/12:00am 14.9 7.5 6.7 58 4.0 WNW 35 56 19 30 1016.3 1016.3 0.0
 
Date/Time
CST
Temp
°C
App
Temp
°C
Dew
Point
Rel
Hum
%
Delta-T
°C
Wind Press
QNH
hPa
Press
MSL
hPa
Rain
since 9 am
mm
Dir
 
Spd
km/h
Gust
km/h
Spd
kts
Gust
kts
22/11:57pm 14.7 7.7 6.9 59 3.8 WNW 33 56 18 30 1016.2 1016.2 0.0
22/11:30pm 14.6 7.7 6.6 58 3.9 WNW 32 44 17 24 1015.8 1015.8 0.0
22/11:07pm 14.7 7.9 6.7 58 3.9 WNW 32 50 17 27 1015.8 1015.8 0.0
22/11:00pm 14.7 7.7 6.7 58 3.9 WNW 33 46 18 25 1015.6 1015.6 0.0
22/10:30pm 14.9 8.1 6.7 58 4.0 WNW 32 50 17 27 1015.2 1015.2 0.0
22/10:27pm 15.0 8.2 6.8 58 4.0 WNW 32 50 17 27 1015.1 1015.1 0.0
22/10:00pm 14.8 9.3 7.5 61 3.6 WNW 26 35 14 19 1015.1 1015.1 0.0
22/09:30pm 15.1 10.3 7.4 60 3.8 WNW 22 35 12 19 1014.7 1014.7 0.0
22/09:00pm 14.9 10.8 8.6 66 3.2 NW 20 32 11 17 1014.7 1014.7 0.0
22/08:30pm 15.5 11.4 7.9 60 3.8 WNW 19 37 10 20 1014.7 1014.7 0.0
22/08:00pm 14.8 12.5 10.4 75 2.3 N 13 19 7 10 1014.3 1014.3 0.0
22/07:30pm 14.5 13.2 11.1 80 1.8 NW 9 11 5 6 1014.1 1014.1 0.0
22/07:00pm 15.4 13.3 11.3 76 2.2 WNW 13 19 7 10 1013.4 1013.4 0.0
22/06:30pm 16.2 12.2 10.6 69 3.0 WNW 22 33 12 18 1013.3 1013.3 0.0
22/06:00pm 17.2 13.9 11.5 69 3.1 NW 20 32 11 17 1012.4 1012.3 0.0
22/05:30pm 17.7 14.9 11.5 67 3.4 WNW 17 28 9 15 1011.8 1011.7 0.0
22/05:00pm 19.3 15.0 9.5 53 5.2 NNW 22 33 12 18 1010.6 1010.6 0.0
22/04:30pm 19.3 13.7 10.0 55 5.0 N 30 39 16 21 1010.0 1010.0 0.0
22/04:00pm 19.0 13.5 10.5 58 4.6 N 30 39 16 21 1009.8 1009.8 0.0
22/03:30pm 18.9 12.7 10.1 56 4.7 NNW 33 43 18 23 1010.1 1010.1 0.0
22/03:00pm 19.2 12.5 9.8 54 5.0 NNW 35 52 19 28 1009.9 1009.9 0.0
22/02:30pm 19.2 12.8 9.4 53 5.2 NNW 33 46 18 25 1009.6 1009.6 0.0
22/02:00pm 19.2 13.8 9.6 53 5.1 NNW 28 37 15 20 1010.0 1010.0 0.0
22/01:30pm 19.2 14.8 10.5 57 4.7 NW 24 37 13 20 1009.8 1009.8 0.0
22/01:10pm 21.6 14.9 7.5 40 7.3 NW 32 50 17 27 1009.7 1009.7 0.0
22/01:00pm 22.5 14.2 5.9 34 8.4 NW 39 56 21 30 1009.4 1009.4 0.0
22/12:30pm 24.9 15.5 4.3 26 10.3 NW 43 67 23 36 1009.1 1009.1 0.0
22/12:23pm 25.0 17.6 3.8 25 10.5 NNW 32 63 17 34 1009.2 1009.2 0.0
22/12:20pm 24.6 18.9 5.0 28 9.9 NNW 24 54 13 29 1009.1 1009.1 0.0
22/12:00pm 23.0 16.5 6.4 34 8.5 N 30 35 16 19 1009.1 1009.1 0.0
22/11:30am 21.6 13.8 6.5 37 7.7 N 37 46 20 25 1009.2 1009.2 0.0
22/11:00am 19.8 11.5 5.9 40 6.9 NNE 39 50 21 27 1009.3 1009.3 0.0
22/10:30am 18.6 10.2 5.8 43 6.3 NNE 39 48 21 26 1009.6 1009.6 0.0
22/10:00am 17.5 9.1 5.8 46 5.7 NNE 39 54 21 29 1009.9 1009.9 0.0
22/09:30am 15.5 6.4 6.0 53 4.6 NNE 43 54 23 29 1010.1 1010.1 0.0
22/09:00am 14.3 5.0 5.9 57 4.0 N 44 56 24 30 1010.3 1010.3 0.0
22/08:30am 13.3 4.0 5.9 61 3.5 N 44 59 24 32 1010.3 1010.3 0.0
22/08:00am 12.5 4.2 5.9 64 3.1 N 39 50 21 27 1010.5 1010.5 0.0
22/07:53am 12.2 4.7 6.1 66 2.9 N 35 48 19 26 1010.5 1010.5 0.0
22/07:30am 11.4 6.0 6.3 71 2.4 N 24 30 13 16 1010.7 1010.7 0.0
22/07:00am 11.0 5.6 6.3 73 2.2 NNE 24 32 13 17 1010.9 1010.9 0.0
22/06:30am 10.7 5.3 6.4 75 2.0 N 24 28 13 15 1011.1 1011.1 0.0
22/06:00am 11.0 5.7 6.8 75 2.0 NNE 24 28 13 15 1011.3 1011.2 0.0
22/05:30am 11.5 5.8 6.9 73 2.2 NNE 26 32 14 17 1011.9 1011.8 0.0
22/05:00am 10.8 7.2 6.8 76 1.9 N 15 19 8 10 1012.3 1012.2 0.0
22/04:30am 11.3 7.0 6.9 74 2.1 NNW 19 22 10 12 1012.3 1012.2 0.0
22/04:00am 11.7 7.8 6.9 72 2.3 N 17 20 9 11 1012.6 1012.5 0.0
22/03:30am 11.9 8.0 7.1 72 2.3 NNE 17 19 9 10 1013.0 1013.0 0.0
22/03:00am 12.1 7.8 6.9 70 2.5 NNE 19 22 10 12 1013.4 1013.4 0.0
22/02:30am 12.3 8.0 7.1 70 2.5 N 19 26 10 14 1013.7 1013.7 0.0
22/02:00am 10.7 7.9 6.9 77 1.8 N 11 15 6 8 1014.0 1014.0 0.0
22/01:30am 11.2 6.9 7.0 75 2.0 NNE 19 20 10 11 1014.3 1014.3 0.0
22/01:00am 11.1 8.2 6.7 74 2.1 NNE 11 13 6 7 1014.6 1014.6 0.0
22/12:30am 11.8 9.4 7.0 72 2.3 N 9 11 5 6 1015.1 1015.1 0.0
22/12:00am 12.4 8.1 7.0 69 2.6 NNE 19 22 10 12 1015.2 1015.2 0.0
 
Date/Time
CST
Temp
°C
App
Temp
°C
Dew
Point
Rel
Hum
%
Delta-T
°C
Wind Press
QNH
hPa
Press
MSL
hPa
Rain
since 9 am
mm
Dir
 
Spd
km/h
Gust
km/h
Spd
kts
Gust
kts
21/11:30pm 13.4 9.1 7.2 66 3.0 NNE 19 26 10 14 1015.5 1015.5 0.0
21/11:00pm 12.7 9.2 7.1 69 2.7 NNE 15 19 8 10 1015.8 1015.8 0.0
21/10:30pm 13.5 9.7 7.4 66 3.0 N 17 19 9 10 1016.0 1016.0 0.0
21/10:00pm 12.7 8.8 7.3 69 2.6 NNE 17 19 9 10 1015.9 1015.9 0.0
21/09:30pm 12.4 8.5 7.0 69 2.6 N 17 20 9 11 1016.2 1016.2 0.0
21/09:00pm 13.9 9.7 7.4 65 3.2 N 19 20 10 11 1016.2 1016.2 0.0
21/08:30pm 13.4 9.4 6.8 64 3.2 N 17 19 9 10 1016.2 1016.2 0.0
21/08:00pm 14.2 11.1 7.3 63 3.4 N 13 15 7 8 1016.3 1016.3 0.0
21/07:30pm 15.1 11.3 7.7 61 3.7 NNE 17 19 9 10 1015.8 1015.8 0.0

Other Formats:

Comma delimited format used in spreadsheet applications
http://www.bom.gov.au/fwo/IDS60801/IDS60801.95818.axf

JavaScript Object Notation format (JSON) in row-major order
http://www.bom.gov.au/fwo/IDS60801/IDS60801.95818.json